sensor_id;sensor_type;location;lat;lon;timestamp;pressure;altitude;pressure_sealevel;temperature;humidity
7768;BME280;3928;42.626;23.382;2023-06-24T00:00:43;94196.00;;;24.47;79.26
7768;BME280;3928;42.626;23.382;2023-06-24T00:03:11;94219.97;;;24.67;78.91
7768;BME280;3928;42.626;23.382;2023-06-24T00:05:39;94167.81;;;24.38;78.19
7768;BME280;3928;42.626;23.382;2023-06-24T00:08:06;94214.41;;;24.83;78.02
7768;BME280;3928;42.626;23.382;2023-06-24T00:10:33;94206.50;;;24.71;77.72
7768;BME280;3928;42.626;23.382;2023-06-24T00:13:02;94212.97;;;24.78;78.10
7768;BME280;3928;42.626;23.382;2023-06-24T00:15:29;94216.50;;;24.90;77.55
7768;BME280;3928;42.626;23.382;2023-06-24T00:17:58;94211.25;;;24.90;77.45
7768;BME280;3928;42.626;23.382;2023-06-24T00:20:33;94211.69;;;24.84;77.67
7768;BME280;3928;42.626;23.382;2023-06-24T00:23:00;94203.03;;;24.71;78.34
7768;BME280;3928;42.626;23.382;2023-06-24T00:25:27;94216.56;;;24.77;78.79
7768;BME280;3928;42.626;23.382;2023-06-24T00:27:54;94129.66;;;24.34;78.47
7768;BME280;3928;42.626;23.382;2023-06-24T00:30:21;94212.59;;;24.72;78.90
7768;BME280;3928;42.626;23.382;2023-06-24T00:32:48;94211.97;;;24.68;79.41
7768;BME280;3928;42.626;23.382;2023-06-24T00:35:18;94208.22;;;24.60;79.40
7768;BME280;3928;42.626;23.382;2023-06-24T00:37:46;94228.78;;;24.66;79.59
7768;BME280;3928;42.626;23.382;2023-06-24T00:40:13;94197.25;;;24.55;79.72
7768;BME280;3928;42.626;23.382;2023-06-24T00:42:42;94211.91;;;24.57;80.11
7768;BME280;3928;42.626;23.382;2023-06-24T00:45:11;94205.56;;;24.48;80.11
7768;BME280;3928;42.626;23.382;2023-06-24T00:47:38;94214.84;;;24.41;80.51
7768;BME280;3928;42.626;23.382;2023-06-24T00:50:06;94206.44;;;24.24;81.75
7768;BME280;3928;42.626;23.382;2023-06-24T00:52:35;94187.63;;;24.06;82.48
7768;BME280;3928;42.626;23.382;2023-06-24T00:55:06;94206.09;;;24.04;83.30
7768;BME280;3928;42.626;23.382;2023-06-24T00:57:33;94205.69;;;23.98;83.49
7768;BME280;3928;42.626;23.382;2023-06-24T01:00:05;94206.03;;;23.80;83.96
7768;BME280;3928;42.626;23.382;2023-06-24T01:02:35;94203.31;;;23.69;85.10
7768;BME280;3928;42.626;23.382;2023-06-24T01:05:03;94190.84;;;23.60;85.27
7768;BME280;3928;42.626;23.382;2023-06-24T01:07:32;94193.97;;;23.65;85.22
7768;BME280;3928;42.626;23.382;2023-06-24T01:10:02;94201.34;;;23.60;85.73
7768;BME280;3928;42.626;23.382;2023-06-24T01:12:33;94194.31;;;23.60;85.57
7768;BME280;3928;42.626;23.382;2023-06-24T01:15:02;94176.56;;;23.26;87.21
7768;BME280;3928;42.626;23.382;2023-06-24T01:17:34;94188.63;;;23.28;87.35
7768;BME280;3928;42.626;23.382;2023-06-24T01:20:05;94195.34;;;23.45;86.67
7768;BME280;3928;42.626;23.382;2023-06-24T01:26:03;94185.16;;;23.28;86.96
7768;BME280;3928;42.626;23.382;2023-06-24T01:31:38;94192.63;;;23.21;87.46
7768;BME280;3928;42.626;23.382;2023-06-24T01:34:14;94187.66;;;23.29;86.98
7768;BME280;3928;42.626;23.382;2023-06-24T01:36:49;94186.72;;;23.30;87.14
7768;BME280;3928;42.626;23.382;2023-06-24T01:39:22;94178.88;;;23.30;86.87
7768;BME280;3928;42.626;23.382;2023-06-24T01:41:59;94181.59;;;23.42;86.28
7768;BME280;3928;42.626;23.382;2023-06-24T01:44:29;94179.09;;;23.40;86.06
7768;BME280;3928;42.626;23.382;2023-06-24T01:46:59;94156.13;;;23.31;85.88
7768;BME280;3928;42.626;23.382;2023-06-24T01:49:29;93982.84;;;22.24;85.76
7768;BME280;3928;42.626;23.382;2023-06-24T01:51:59;94197.53;;;23.51;85.20
7768;BME280;3928;42.626;23.382;2023-06-24T01:54:28;94209.31;;;23.58;84.95
7768;BME280;3928;42.626;23.382;2023-06-24T01:56:57;94207.78;;;23.42;85.67
7768;BME280;3928;42.626;23.382;2023-06-24T01:59:27;94214.47;;;23.20;87.06
7768;BME280;3928;42.626;23.382;2023-06-24T02:01:56;94215.34;;;23.33;86.00
7768;BME280;3928;42.626;23.382;2023-06-24T02:04:24;94207.56;;;23.07;86.65
7768;BME280;3928;42.626;23.382;2023-06-24T02:06:58;94226.81;;;23.05;87.33
7768;BME280;3928;42.626;23.382;2023-06-24T02:09:28;94226.19;;;23.02;87.82
7768;BME280;3928;42.626;23.382;2023-06-24T02:11:57;94231.66;;;23.12;87.35
7768;BME280;3928;42.626;23.382;2023-06-24T02:14:25;94230.31;;;23.31;85.60
7768;BME280;3928;42.626;23.382;2023-06-24T02:16:53;94225.59;;;23.49;84.83
7768;BME280;3928;42.626;23.382;2023-06-24T02:19:24;94226.56;;;23.48;84.39
7768;BME280;3928;42.626;23.382;2023-06-24T02:21:53;94228.47;;;23.59;83.10
7768;BME280;3928;42.626;23.382;2023-06-24T02:24:20;94232.78;;;23.60;83.41
7768;BME280;3928;42.626;23.382;2023-06-24T02:26:48;94236.34;;;23.59;83.59
7768;BME280;3928;42.626;23.382;2023-06-24T02:29:16;94223.94;;;23.48;83.90
7768;BME280;3928;42.626;23.382;2023-06-24T02:31:44;94241.94;;;23.53;84.56
7768;BME280;3928;42.626;23.382;2023-06-24T02:34:11;94218.69;;;23.36;84.84
7768;BME280;3928;42.626;23.382;2023-06-24T02:36:39;94259.91;;;23.59;85.19
7768;BME280;3928;42.626;23.382;2023-06-24T02:39:06;94215.97;;;23.24;85.97
7768;BME280;3928;42.626;23.382;2023-06-24T02:41:33;94278.25;;;23.59;86.11
7768;BME280;3928;42.626;23.382;2023-06-24T02:44:00;94282.88;;;23.68;85.98
7768;BME280;3928;42.626;23.382;2023-06-24T02:46:27;94278.97;;;23.61;86.12
7768;BME280;3928;42.626;23.382;2023-06-24T02:48:56;94270.50;;;23.70;85.93
7768;BME280;3928;42.626;23.382;2023-06-24T02:51:25;94283.06;;;23.78;85.97
7768;BME280;3928;42.626;23.382;2023-06-24T02:53:54;94282.94;;;23.79;85.53
7768;BME280;3928;42.626;23.382;2023-06-24T02:56:26;94279.19;;;23.83;85.11
7768;BME280;3928;42.626;23.382;2023-06-24T02:58:53;94276.38;;;23.74;85.98
7768;BME280;3928;42.626;23.382;2023-06-24T03:01:21;94282.78;;;23.82;85.85
7768;BME280;3928;42.626;23.382;2023-06-24T03:03:52;94286.00;;;23.86;85.41
7768;BME280;3928;42.626;23.382;2023-06-24T03:06:20;94279.31;;;23.95;84.73
7768;BME280;3928;42.626;23.382;2023-06-24T03:08:48;94280.25;;;23.94;84.67
7768;BME280;3928;42.626;23.382;2023-06-24T03:11:16;94291.25;;;23.99;84.87
7768;BME280;3928;42.626;23.382;2023-06-24T03:13:43;94274.06;;;23.82;85.17
7768;BME280;3928;42.626;23.382;2023-06-24T03:16:10;94275.09;;;23.79;85.04
7768;BME280;3928;42.626;23.382;2023-06-24T03:18:40;94280.78;;;23.73;85.71
7768;BME280;3928;42.626;23.382;2023-06-24T03:21:07;94284.22;;;23.74;85.26
7768;BME280;3928;42.626;23.382;2023-06-24T03:23:34;94286.44;;;23.92;84.12
7768;BME280;3928;42.626;23.382;2023-06-24T03:26:01;94282.75;;;24.08;83.79
7768;BME280;3928;42.626;23.382;2023-06-24T03:28:30;94265.13;;;24.10;83.07
7768;BME280;3928;42.626;23.382;2023-06-24T03:30:57;94287.97;;;24.33;82.56
7768;BME280;3928;42.626;23.382;2023-06-24T03:33:24;94285.47;;;24.32;82.63
7768;BME280;3928;42.626;23.382;2023-06-24T03:35:52;94297.53;;;24.34;80.72
7768;BME280;3928;42.626;23.382;2023-06-24T03:38:20;94314.50;;;24.29;80.10
7768;BME280;3928;42.626;23.382;2023-06-24T03:40:47;94324.59;;;24.35;79.80
7768;BME280;3928;42.626;23.382;2023-06-24T03:43:13;94314.22;;;24.33;80.35
7768;BME280;3928;42.626;23.382;2023-06-24T03:45:42;94320.59;;;24.42;79.78
7768;BME280;3928;42.626;23.382;2023-06-24T03:48:08;94329.72;;;24.36;79.27
7768;BME280;3928;42.626;23.382;2023-06-24T03:50:35;94328.03;;;24.23;79.77
7768;BME280;3928;42.626;23.382;2023-06-24T03:53:03;94329.22;;;24.31;78.97
7768;BME280;3928;42.626;23.382;2023-06-24T03:55:30;94329.22;;;24.31;78.86
7768;BME280;3928;42.626;23.382;2023-06-24T03:57:57;94323.50;;;24.25;78.82
7768;BME280;3928;42.626;23.382;2023-06-24T04:00:24;94320.19;;;24.10;79.42
7768;BME280;3928;42.626;23.382;2023-06-24T04:02:52;94321.22;;;24.20;79.75
7768;BME280;3928;42.626;23.382;2023-06-24T04:05:21;94319.44;;;24.20;79.47
7768;BME280;3928;42.626;23.382;2023-06-24T04:07:48;94320.69;;;24.28;79.27
7768;BME280;3928;42.626;23.382;2023-06-24T04:10:16;94308.97;;;24.33;79.15
7768;BME280;3928;42.626;23.382;2023-06-24T04:12:43;94321.53;;;24.41;78.99
7768;BME280;3928;42.626;23.382;2023-06-24T04:15:10;94331.28;;;24.52;78.41
7768;BME280;3928;42.626;23.382;2023-06-24T04:17:37;94327.03;;;24.62;78.55
7768;BME280;3928;42.626;23.382;2023-06-24T04:20:07;94307.94;;;24.60;78.15
7768;BME280;3928;42.626;23.382;2023-06-24T04:22:35;94326.56;;;24.81;78.58
7768;BME280;3928;42.626;23.382;2023-06-24T04:25:03;94318.16;;;24.88;79.76
7768;BME280;3928;42.626;23.382;2023-06-24T04:27:31;94308.09;;;24.82;80.94
7768;BME280;3928;42.626;23.382;2023-06-24T04:29:58;94312.53;;;24.69;81.76
7768;BME280;3928;42.626;23.382;2023-06-24T04:32:25;94310.38;;;24.63;81.77
7768;BME280;3928;42.626;23.382;2023-06-24T04:34:51;94303.28;;;24.76;81.01
7768;BME280;3928;42.626;23.382;2023-06-24T04:37:20;94301.41;;;24.78;80.90
7768;BME280;3928;42.626;23.382;2023-06-24T04:39:47;94278.72;;;24.77;81.34
7768;BME280;3928;42.626;23.382;2023-06-24T04:42:14;94291.44;;;24.94;81.36
7768;BME280;3928;42.626;23.382;2023-06-24T04:44:41;94297.31;;;25.11;80.93
7768;BME280;3928;42.626;23.382;2023-06-24T04:47:08;94301.41;;;25.26;80.31
7768;BME280;3928;42.626;23.382;2023-06-24T04:49:34;94311.44;;;25.32;79.25
7768;BME280;3928;42.626;23.382;2023-06-24T04:52:02;94298.72;;;25.39;78.15
7768;BME280;3928;42.626;23.382;2023-06-24T04:54:30;94302.34;;;25.49;78.16
7768;BME280;3928;42.626;23.382;2023-06-24T04:56:57;94307.81;;;25.57;77.27
7768;BME280;3928;42.626;23.382;2023-06-24T04:59:23;94303.66;;;25.54;75.41
7768;BME280;3928;42.626;23.382;2023-06-24T05:01:50;94313.59;;;25.62;75.61
7768;BME280;3928;42.626;23.382;2023-06-24T05:04:17;94308.03;;;25.43;75.72
7768;BME280;3928;42.626;23.382;2023-06-24T05:06:44;94304.75;;;25.28;76.39
7768;BME280;3928;42.626;23.382;2023-06-24T05:09:11;94311.59;;;25.06;76.52
7768;BME280;3928;42.626;23.382;2023-06-24T05:11:41;94291.00;;;25.00;75.95
7768;BME280;3928;42.626;23.382;2023-06-24T05:14:07;94312.69;;;24.91;76.47
7768;BME280;3928;42.626;23.382;2023-06-24T05:16:34;94312.00;;;25.13;76.42
7768;BME280;3928;42.626;23.382;2023-06-24T05:19:01;94316.63;;;25.45;76.45
7768;BME280;3928;42.626;23.382;2023-06-24T05:21:28;94296.38;;;25.58;76.42
7768;BME280;3928;42.626;23.382;2023-06-24T05:23:55;94316.66;;;25.91;74.74
7768;BME280;3928;42.626;23.382;2023-06-24T05:26:21;94302.22;;;26.08;74.08
7768;BME280;3928;42.626;23.382;2023-06-24T05:28:50;94302.59;;;26.26;71.67
7768;BME280;3928;42.626;23.382;2023-06-24T05:31:16;94250.72;;;25.94;71.82
7768;BME280;3928;42.626;23.382;2023-06-24T05:33:43;94294.72;;;26.48;72.67
7768;BME280;3928;42.626;23.382;2023-06-24T05:36:10;94301.16;;;26.66;72.15
7768;BME280;3928;42.626;23.382;2023-06-24T05:38:37;94304.84;;;26.75;71.33
7768;BME280;3928;42.626;23.382;2023-06-24T05:41:04;94307.56;;;26.96;70.34
7768;BME280;3928;42.626;23.382;2023-06-24T05:43:31;94304.44;;;27.13;70.25
7768;BME280;3928;42.626;23.382;2023-06-24T05:45:59;94302.25;;;27.18;69.93
7768;BME280;3928;42.626;23.382;2023-06-24T05:48:26;94303.38;;;27.36;69.44
7768;BME280;3928;42.626;23.382;2023-06-24T05:50:52;94298.06;;;27.48;69.69
7768;BME280;3928;42.626;23.382;2023-06-24T05:53:19;94294.88;;;27.65;68.77
7768;BME280;3928;42.626;23.382;2023-06-24T05:55:46;94305.28;;;27.87;67.75
7768;BME280;3928;42.626;23.382;2023-06-24T05:58:13;94300.91;;;27.98;67.17
7768;BME280;3928;42.626;23.382;2023-06-24T06:00:40;94300.84;;;28.09;66.53
7768;BME280;3928;42.626;23.382;2023-06-24T06:03:08;94302.44;;;28.21;66.34
7768;BME280;3928;42.626;23.382;2023-06-24T06:05:36;94301.69;;;28.30;64.79
7768;BME280;3928;42.626;23.382;2023-06-24T06:08:03;94291.41;;;28.37;64.09
7768;BME280;3928;42.626;23.382;2023-06-24T06:10:30;94282.84;;;28.44;64.47
7768;BME280;3928;42.626;23.382;2023-06-24T06:12:57;94272.28;;;28.44;65.11
7768;BME280;3928;42.626;23.382;2023-06-24T06:15:23;94265.31;;;28.43;64.22
7768;BME280;3928;42.626;23.382;2023-06-24T06:17:51;94284.44;;;28.66;65.12
7768;BME280;3928;42.626;23.382;2023-06-24T06:20:19;94284.72;;;28.73;63.75
7768;BME280;3928;42.626;23.382;2023-06-24T06:22:46;94273.03;;;28.75;63.81
7768;BME280;3928;42.626;23.382;2023-06-24T06:25:13;94290.78;;;28.94;63.53
7768;BME280;3928;42.626;23.382;2023-06-24T06:27:40;94287.19;;;29.05;62.03
7768;BME280;3928;42.626;23.382;2023-06-24T06:30:07;94292.47;;;29.15;63.37
7768;BME280;3928;42.626;23.382;2023-06-24T06:32:34;94288.56;;;29.19;64.06
7768;BME280;3928;42.626;23.382;2023-06-24T06:35:01;94287.19;;;29.24;64.32
7768;BME280;3928;42.626;23.382;2023-06-24T06:37:29;94292.75;;;29.40;63.43
7768;BME280;3928;42.626;23.382;2023-06-24T06:39:56;94289.97;;;29.42;61.64
7768;BME280;3928;42.626;23.382;2023-06-24T06:42:23;94295.13;;;29.44;62.60
7768;BME280;3928;42.626;23.382;2023-06-24T06:44:50;94299.88;;;29.40;62.56
7768;BME280;3928;42.626;23.382;2023-06-24T06:47:17;94297.06;;;29.32;62.53
7768;BME280;3928;42.626;23.382;2023-06-24T06:49:44;94297.91;;;29.42;62.50
7768;BME280;3928;42.626;23.382;2023-06-24T06:52:11;94302.53;;;29.50;60.77
7768;BME280;3928;42.626;23.382;2023-06-24T06:54:39;94314.06;;;29.58;61.13
7768;BME280;3928;42.626;23.382;2023-06-24T06:57:06;94310.88;;;29.64;59.86
7768;BME280;3928;42.626;23.382;2023-06-24T06:59:33;94279.44;;;29.52;59.96
7768;BME280;3928;42.626;23.382;2023-06-24T07:02:00;94299.47;;;29.74;59.87
7768;BME280;3928;42.626;23.382;2023-06-24T07:04:26;94309.31;;;29.81;61.27
7768;BME280;3928;42.626;23.382;2023-06-24T07:06:57;94309.44;;;29.99;61.11
7768;BME280;3928;42.626;23.382;2023-06-24T07:09:24;94310.00;;;30.12;59.82
7768;BME280;3928;42.626;23.382;2023-06-24T07:11:52;94309.22;;;30.30;59.92
7768;BME280;3928;42.626;23.382;2023-06-24T07:14:19;94294.06;;;30.32;58.14
7768;BME280;3928;42.626;23.382;2023-06-24T07:16:46;94317.31;;;30.38;56.23
7768;BME280;3928;42.626;23.382;2023-06-24T07:19:13;94311.25;;;30.55;56.98
7768;BME280;3928;42.626;23.382;2023-06-24T07:21:39;94319.00;;;30.66;57.03
7768;BME280;3928;42.626;23.382;2023-06-24T07:24:06;94315.13;;;30.70;55.62
7768;BME280;3928;42.626;23.382;2023-06-24T07:26:33;94317.25;;;30.84;55.67
7768;BME280;3928;42.626;23.382;2023-06-24T07:29:01;94312.84;;;31.03;55.20
7768;BME280;3928;42.626;23.382;2023-06-24T07:31:28;94305.63;;;31.23;54.77
7768;BME280;3928;42.626;23.382;2023-06-24T07:33:55;94299.94;;;31.35;55.83
7768;BME280;3928;42.626;23.382;2023-06-24T07:36:22;94292.53;;;31.11;54.16
7768;BME280;3928;42.626;23.382;2023-06-24T07:38:49;94320.09;;;31.01;54.57
7768;BME280;3928;42.626;23.382;2023-06-24T07:41:15;94303.00;;;31.13;54.69
7768;BME280;3928;42.626;23.382;2023-06-24T07:43:42;94306.16;;;31.26;55.40
7768;BME280;3928;42.626;23.382;2023-06-24T07:46:10;94296.28;;;31.36;54.51
7768;BME280;3928;42.626;23.382;2023-06-24T07:48:37;94296.38;;;31.62;53.86
7768;BME280;3928;42.626;23.382;2023-06-24T07:51:04;94298.03;;;31.81;53.28
7768;BME280;3928;42.626;23.382;2023-06-24T07:53:31;94303.13;;;31.57;53.84
7768;BME280;3928;42.626;23.382;2023-06-24T07:55:58;94300.59;;;31.73;54.54
7768;BME280;3928;42.626;23.382;2023-06-24T07:58:25;94306.44;;;31.94;53.61
7768;BME280;3928;42.626;23.382;2023-06-24T08:00:52;94301.25;;;32.11;53.08
7768;BME280;3928;42.626;23.382;2023-06-24T08:03:21;94291.97;;;32.15;51.67
7768;BME280;3928;42.626;23.382;2023-06-24T08:05:48;94311.41;;;32.33;51.61
7768;BME280;3928;42.626;23.382;2023-06-24T08:08:15;94285.19;;;32.20;52.01
7768;BME280;3928;42.626;23.382;2023-06-24T08:10:43;94320.44;;;32.48;50.63
7768;BME280;3928;42.626;23.382;2023-06-24T08:13:10;94297.88;;;32.52;50.56
7768;BME280;3928;42.626;23.382;2023-06-24T08:15:37;94319.56;;;32.74;50.44
7768;BME280;3928;42.626;23.382;2023-06-24T08:18:04;94313.31;;;32.83;49.83
7768;BME280;3928;42.626;23.382;2023-06-24T08:20:32;94312.53;;;32.99;49.17
7768;BME280;3928;42.626;23.382;2023-06-24T08:22:59;94304.28;;;33.10;48.93
7768;BME280;3928;42.626;23.382;2023-06-24T08:25:26;94309.25;;;33.13;48.43
7768;BME280;3928;42.626;23.382;2023-06-24T08:27:52;94248.56;;;32.92;48.38
7768;BME280;3928;42.626;23.382;2023-06-24T08:30:19;94306.09;;;33.09;48.47
7768;BME280;3928;42.626;23.382;2023-06-24T08:32:46;94301.53;;;33.36;48.18
7768;BME280;3928;42.626;23.382;2023-06-24T08:35:13;94285.53;;;33.28;47.50
7768;BME280;3928;42.626;23.382;2023-06-24T08:37:41;94302.56;;;33.51;49.27
7768;BME280;3928;42.626;23.382;2023-06-24T08:40:09;94290.75;;;33.62;48.70
7768;BME280;3928;42.626;23.382;2023-06-24T08:42:35;94293.59;;;33.77;47.74
7768;BME280;3928;42.626;23.382;2023-06-24T08:45:03;94290.91;;;33.68;47.38
7768;BME280;3928;42.626;23.382;2023-06-24T08:47:30;94282.31;;;33.91;46.41
7768;BME280;3928;42.626;23.382;2023-06-24T08:50:03;94279.94;;;33.96;46.16
7768;BME280;3928;42.626;23.382;2023-06-24T08:52:35;94272.31;;;34.01;45.84
7768;BME280;3928;42.626;23.382;2023-06-24T08:55:04;94286.75;;;34.23;44.38
7768;BME280;3928;42.626;23.382;2023-06-24T08:57:33;94278.56;;;34.33;45.42
7768;BME280;3928;42.626;23.382;2023-06-24T09:00:00;94268.59;;;34.26;45.03
7768;BME280;3928;42.626;23.382;2023-06-24T09:02:27;94277.19;;;34.53;43.70
7768;BME280;3928;42.626;23.382;2023-06-24T09:04:54;94281.34;;;34.64;45.20
7768;BME280;3928;42.626;23.382;2023-06-24T09:07:28;94286.66;;;34.72;42.45
7768;BME280;3928;42.626;23.382;2023-06-24T09:09:55;94265.16;;;34.65;43.44
7768;BME280;3928;42.626;23.382;2023-06-24T09:12:24;94274.44;;;34.77;42.98
7768;BME280;3928;42.626;23.382;2023-06-24T09:14:51;94261.44;;;34.82;43.28
7768;BME280;3928;42.626;23.382;2023-06-24T09:17:19;94272.03;;;34.99;43.23
7768;BME280;3928;42.626;23.382;2023-06-24T09:19:47;94275.25;;;34.94;41.88
7768;BME280;3928;42.626;23.382;2023-06-24T09:22:14;94263.41;;;34.88;41.93
7768;BME280;3928;42.626;23.382;2023-06-24T09:24:44;94273.53;;;35.01;42.84
7768;BME280;3928;42.626;23.382;2023-06-24T09:27:12;94274.50;;;35.08;42.83
7768;BME280;3928;42.626;23.382;2023-06-24T09:29:43;94279.56;;;35.26;42.54
7768;BME280;3928;42.626;23.382;2023-06-24T09:32:10;94259.53;;;35.30;41.96
7768;BME280;3928;42.626;23.382;2023-06-24T09:34:37;94274.75;;;35.53;42.42
7768;BME280;3928;42.626;23.382;2023-06-24T09:37:05;94261.03;;;35.56;41.96
7768;BME280;3928;42.626;23.382;2023-06-24T09:39:35;94254.78;;;35.63;42.16
7768;BME280;3928;42.626;23.382;2023-06-24T09:42:04;94282.47;;;35.85;40.91
7768;BME280;3928;42.626;23.382;2023-06-24T09:44:31;94281.44;;;35.94;41.05
7768;BME280;3928;42.626;23.382;2023-06-24T09:47:01;94275.66;;;36.06;41.96
7768;BME280;3928;42.626;23.382;2023-06-24T09:49:29;94279.94;;;36.15;41.34
7768;BME280;3928;42.626;23.382;2023-06-24T09:51:57;94267.78;;;36.27;40.91
7768;BME280;3928;42.626;23.382;2023-06-24T09:54:27;94277.03;;;36.39;39.80
7768;BME280;3928;42.626;23.382;2023-06-24T09:56:59;94234.78;;;36.20;39.96
7768;BME280;3928;42.626;23.382;2023-06-24T10:02:15;94267.09;;;36.63;39.16
7768;BME280;3928;42.626;23.382;2023-06-24T10:04:43;94269.19;;;36.52;37.40
7768;BME280;3928;42.626;23.382;2023-06-24T10:07:11;94256.94;;;36.58;38.08
7768;BME280;3928;42.626;23.382;2023-06-24T10:09:38;94260.44;;;36.73;38.98
7768;BME280;3928;42.626;23.382;2023-06-24T10:12:07;94256.47;;;36.69;38.49
7768;BME280;3928;42.626;23.382;2023-06-24T10:14:34;94240.88;;;36.73;39.21
7768;BME280;3928;42.626;23.382;2023-06-24T10:17:02;94071.41;;;35.79;38.35
7768;BME280;3928;42.626;23.382;2023-06-24T10:19:38;94241.44;;;36.53;38.71
7768;BME280;3928;42.626;23.382;2023-06-24T10:22:07;94235.25;;;36.68;39.16
7768;BME280;3928;42.626;23.382;2023-06-24T10:24:37;94225.03;;;36.86;37.25
7768;BME280;3928;42.626;23.382;2023-06-24T10:27:07;94219.84;;;36.99;34.53
7768;BME280;3928;42.626;23.382;2023-06-24T10:29:35;94212.81;;;36.98;36.17
7768;BME280;3928;42.626;23.382;2023-06-24T10:32:05;94220.75;;;37.06;35.83
7768;BME280;3928;42.626;23.382;2023-06-24T10:34:34;94210.09;;;37.13;35.81
7768;BME280;3928;42.626;23.382;2023-06-24T10:37:09;94167.28;;;36.77;34.53
7768;BME280;3928;42.626;23.382;2023-06-24T10:39:44;94204.75;;;37.13;35.64
7768;BME280;3928;42.626;23.382;2023-06-24T10:42:33;94199.00;;;37.31;35.91
7768;BME280;3928;42.626;23.382;2023-06-24T10:45:02;94200.63;;;37.53;36.40
7768;BME280;3928;42.626;23.382;2023-06-24T10:47:40;94197.06;;;37.46;34.21
7768;BME280;3928;42.626;23.382;2023-06-24T10:50:11;94187.81;;;37.70;35.01
7768;BME280;3928;42.626;23.382;2023-06-24T10:52:39;94175.56;;;37.61;33.47
7768;BME280;3928;42.626;23.382;2023-06-24T10:55:07;94194.59;;;37.66;33.66
7768;BME280;3928;42.626;23.382;2023-06-24T10:57:34;94161.13;;;37.55;34.26
7768;BME280;3928;42.626;23.382;2023-06-24T11:00:03;94027.47;;;36.83;34.32
7768;BME280;3928;42.626;23.382;2023-06-24T11:02:33;94168.84;;;37.71;34.97
7768;BME280;3928;42.626;23.382;2023-06-24T11:05:02;94094.00;;;37.35;34.69
7768;BME280;3928;42.626;23.382;2023-06-24T11:07:33;94178.28;;;37.89;34.06
7768;BME280;3928;42.626;23.382;2023-06-24T11:10:04;94176.88;;;37.93;33.31
7768;BME280;3928;42.626;23.382;2023-06-24T11:12:32;94166.78;;;37.95;32.85
7768;BME280;3928;42.626;23.382;2023-06-24T11:15:01;94144.94;;;37.98;33.46
7768;BME280;3928;42.626;23.382;2023-06-24T11:17:28;94154.56;;;38.14;33.50
7768;BME280;3928;42.626;23.382;2023-06-24T11:19:58;94144.19;;;38.04;33.43
7768;BME280;3928;42.626;23.382;2023-06-24T11:22:26;94173.63;;;38.32;31.48
7768;BME280;3928;42.626;23.382;2023-06-24T11:24:55;94183.59;;;38.45;29.56
7768;BME280;3928;42.626;23.382;2023-06-24T11:27:26;94180.63;;;37.98;29.51
7768;BME280;3928;42.626;23.382;2023-06-24T11:29:58;94170.44;;;37.87;31.26
7768;BME280;3928;42.626;23.382;2023-06-24T11:32:35;94179.44;;;38.08;31.47
7768;BME280;3928;42.626;23.382;2023-06-24T11:35:04;94196.72;;;38.26;31.65
7768;BME280;3928;42.626;23.382;2023-06-24T11:37:32;94184.03;;;38.14;30.35
7768;BME280;3928;42.626;23.382;2023-06-24T11:40:05;94162.84;;;37.91;30.91
7768;BME280;3928;42.626;23.382;2023-06-24T11:42:35;94175.78;;;37.87;30.18
7768;BME280;3928;42.626;23.382;2023-06-24T11:45:04;94155.88;;;36.83;31.44
7768;BME280;3928;42.626;23.382;2023-06-24T11:47:31;94170.22;;;36.82;32.41
7768;BME280;3928;42.626;23.382;2023-06-24T11:50:02;94148.47;;;36.85;33.14
7768;BME280;3928;42.626;23.382;2023-06-24T11:52:38;94080.69;;;36.27;32.54
7768;BME280;3928;42.626;23.382;2023-06-24T11:55:13;94145.84;;;36.55;32.79
7768;BME280;3928;42.626;23.382;2023-06-24T11:57:54;94133.47;;;36.54;33.06
7768;BME280;3928;42.626;23.382;2023-06-24T12:00:21;94111.47;;;36.52;34.59
7768;BME280;3928;42.626;23.382;2023-06-24T12:02:50;94120.72;;;36.86;34.16
7768;BME280;3928;42.626;23.382;2023-06-24T12:05:22;94115.72;;;37.04;33.30
7768;BME280;3928;42.626;23.382;2023-06-24T12:07:54;94122.69;;;36.99;32.87
7768;BME280;3928;42.626;23.382;2023-06-24T12:10:24;94112.03;;;36.69;32.46
7768;BME280;3928;42.626;23.382;2023-06-24T12:12:52;94102.84;;;36.72;34.52
7768;BME280;3928;42.626;23.382;2023-06-24T12:15:19;94044.69;;;36.38;34.36
7768;BME280;3928;42.626;23.382;2023-06-24T12:17:48;94101.69;;;36.59;34.32
7768;BME280;3928;42.626;23.382;2023-06-24T12:20:15;94106.41;;;36.28;34.10
7768;BME280;3928;42.626;23.382;2023-06-24T12:22:45;94110.41;;;36.02;35.27
7768;BME280;3928;42.626;23.382;2023-06-24T12:25:12;94101.25;;;35.82;34.79
7768;BME280;3928;42.626;23.382;2023-06-24T12:27:42;94100.69;;;35.72;35.34
7768;BME280;3928;42.626;23.382;2023-06-24T12:30:09;94098.19;;;35.56;36.61
7768;BME280;3928;42.626;23.382;2023-06-24T12:32:37;94063.84;;;35.15;36.53
7768;BME280;3928;42.626;23.382;2023-06-24T12:35:05;94084.03;;;35.17;37.00
7768;BME280;3928;42.626;23.382;2023-06-24T12:37:34;94131.69;;;35.21;38.07
7768;BME280;3928;42.626;23.382;2023-06-24T12:40:02;94124.44;;;34.83;37.24
7768;BME280;3928;42.626;23.382;2023-06-24T12:42:31;94130.41;;;34.23;39.31
7768;BME280;3928;42.626;23.382;2023-06-24T12:45:01;94131.34;;;33.83;39.11
7768;BME280;3928;42.626;23.382;2023-06-24T12:47:30;94128.28;;;33.39;39.71
7768;BME280;3928;42.626;23.382;2023-06-24T12:49:58;93967.38;;;32.13;40.09
7768;BME280;3928;42.626;23.382;2023-06-24T12:52:25;94152.53;;;32.95;41.59
7768;BME280;3928;42.626;23.382;2023-06-24T12:54:53;94164.13;;;32.86;43.48
7768;BME280;3928;42.626;23.382;2023-06-24T12:57:21;94172.63;;;32.39;43.90
7768;BME280;3928;42.626;23.382;2023-06-24T12:59:50;94159.56;;;32.20;44.08
7768;BME280;3928;42.626;23.382;2023-06-24T13:02:19;94146.16;;;31.87;45.59
7768;BME280;3928;42.626;23.382;2023-06-24T13:04:46;93987.09;;;30.74;45.59
7768;BME280;3928;42.626;23.382;2023-06-24T13:07:14;94080.41;;;31.21;45.34
7768;BME280;3928;42.626;23.382;2023-06-24T13:09:41;94143.69;;;31.68;45.65
7768;BME280;3928;42.626;23.382;2023-06-24T13:12:08;94139.25;;;31.25;46.58
7768;BME280;3928;42.626;23.382;2023-06-24T13:14:36;94137.16;;;31.36;47.54
7768;BME280;3928;42.626;23.382;2023-06-24T13:17:03;94105.16;;;31.12;47.46
7768;BME280;3928;42.626;23.382;2023-06-24T13:19:32;94114.09;;;31.29;47.18
7768;BME280;3928;42.626;23.382;2023-06-24T13:21:59;94100.34;;;30.90;48.06
7768;BME280;3928;42.626;23.382;2023-06-24T13:24:26;94097.41;;;30.93;48.73